This is the latest recevied weather packets stored in our database for station/object N8SHA. If no packets are shown the sender has not sent any weather packets the latest 10 day(s).
| Time | Temp. | Humidity | Pressure | Rain* | Wind** | Luminosity | Snow |
|---|---|---|---|---|---|---|---|
| 1777944775 | 18.89° C | 67% | 999.4 hPa | 0 mm | - | 0 W/m² | - |
| 1777944473 | 18.89° C | 67% | 999 hPa | 0 mm | - | 0 W/m² | - |
| 1777944170 | 18.89° C | 67% | 999.3 hPa | 0 mm | - | 0 W/m² | - |
| 1777943865 | 18.89° C | 67% | 999.2 hPa | 0 mm | - | 0 W/m² | - |
| 1777943557 | 18.89° C | 67% | 999.3 hPa | 0 mm | - | 0 W/m² | - |
| 1777943253 | 18.89° C | 67% | 998.9 hPa | 0 mm | - | 0 W/m² | - |
| 1777942949 | 18.89° C | 66% | 998.9 hPa | 0 mm | - | 0 W/m² | - |
| 1777942646 | 18.89° C | 66% | 999 hPa | 0 mm | - | 0 W/m² | - |
| 1777942343 | 19.44° C | 64% | 999 hPa | 0 mm | - | 0 W/m² | - |
| 1777942040 | 19.44° C | 63% | 998.8 hPa | 0 mm | - | 1 W/m² | - |
| 1777941736 | 19.44° C | 62% | 998.7 hPa | 0 mm | - | 2 W/m² | - |
| 1777941434 | 20° C | 61% | 998.5 hPa | 0 mm | - | 3 W/m² | - |
| 1777941132 | 20° C | 61% | 998.6 hPa | 0 mm | - | 6 W/m² | - |
| 1777940827 | 20.56° C | 59% | 998.4 hPa | 0 mm | - | 9 W/m² | - |
| 1777940525 | 20.56° C | 58% | 998.6 hPa | 0 mm | - | 12 W/m² | - |
| 1777940222 | 21.67° C | 55% | 998.5 hPa | 0 mm | - | 16 W/m² | - |
| 1777939920 | 22.22° C | 51% | 998.7 hPa | 0 mm | - | 29 W/m² | - |
| 1777939617 | 22.22° C | 49% | 998.5 hPa | 0 mm | - | 27 W/m² | - |
| 1777939315 | 22.78° C | 49% | 998.4 hPa | 0 mm | - | 32 W/m² | - |
| 1777939011 | 22.78° C | 48% | 998.5 hPa | 0 mm | - | 48 W/m² | - |
| 1777938707 | 22.78° C | 48% | 998.5 hPa | 0 mm | - | 43 W/m² | - |
| 1777938405 | 22.78° C | 48% | 998.6 hPa | 0 mm | - | 54 W/m² | - |
| 1777938102 | 22.78° C | 49% | 998.5 hPa | 0 mm | - | 53 W/m² | - |
| 1777937797 | 22.78° C | 47% | 998.6 hPa | 0 mm | - | 41 W/m² | - |
| 1777937493 | 22.78° C | 47% | 998.8 hPa | 0 mm | - | 45 W/m² | - |
* Rain latest hour (hover to see other rain measurements)
** Current wind speed in m/s (hover to see current wind gust speed)